sensor_id;sensor_type;location;lat;lon;timestamp;P1;durP1;ratioP1;P2;durP2;ratioP2
69625;SDS011;56847;51.984;5.088;2022-12-11T00:02:07;136.98;;;34.33;;
69625;SDS011;56847;51.984;5.088;2022-12-11T00:04:37;119.47;;;33.47;;
69625;SDS011;56847;51.984;5.088;2022-12-11T00:07:05;129.60;;;35.33;;
69625;SDS011;56847;51.984;5.088;2022-12-11T00:09:32;124.60;;;33.90;;
69625;SDS011;56847;51.984;5.088;2022-12-11T00:11:59;136.95;;;35.88;;
69625;SDS011;56847;51.984;5.088;2022-12-11T00:14:28;144.65;;;35.38;;
69625;SDS011;56847;51.984;5.088;2022-12-11T00:16:55;134.45;;;36.38;;
69625;SDS011;56847;51.984;5.088;2022-12-11T00:19:22;136.25;;;36.42;;
69625;SDS011;56847;51.984;5.088;2022-12-11T00:21:50;144.47;;;37.23;;
69625;SDS011;56847;51.984;5.088;2022-12-11T00:24:17;124.68;;;36.67;;
69625;SDS011;56847;51.984;5.088;2022-12-11T00:26:44;137.35;;;38.42;;
69625;SDS011;56847;51.984;5.088;2022-12-11T00:29:13;130.82;;;35.50;;
69625;SDS011;56847;51.984;5.088;2022-12-11T00:31:40;139.73;;;36.88;;
69625;SDS011;56847;51.984;5.088;2022-12-11T01:02:17;118.25;;;35.55;;
69625;SDS011;56847;51.984;5.088;2022-12-11T06:02:22;56.90;;;25.52;;
69625;SDS011;56847;51.984;5.088;2022-12-11T06:04:52;56.00;;;26.53;;
69625;SDS011;56847;51.984;5.088;2022-12-11T06:07:21;55.08;;;26.85;;
69625;SDS011;56847;51.984;5.088;2022-12-11T06:09:48;57.78;;;26.73;;
69625;SDS011;56847;51.984;5.088;2022-12-11T06:12:15;61.63;;;27.35;;
69625;SDS011;56847;51.984;5.088;2022-12-11T06:14:42;55.67;;;27.55;;
69625;SDS011;56847;51.984;5.088;2022-12-11T06:17:09;61.17;;;26.37;;
69625;SDS011;56847;51.984;5.088;2022-12-11T06:19:36;55.78;;;26.42;;
69625;SDS011;56847;51.984;5.088;2022-12-11T06:22:03;61.53;;;28.35;;
69625;SDS011;56847;51.984;5.088;2022-12-11T06:24:30;58.67;;;27.20;;
69625;SDS011;56847;51.984;5.088;2022-12-11T06:26:58;63.97;;;27.83;;
69625;SDS011;56847;51.984;5.088;2022-12-11T06:29:25;59.63;;;27.30;;
69625;SDS011;56847;51.984;5.088;2022-12-11T06:31:51;57.13;;;27.00;;
69625;SDS011;56847;51.984;5.088;2022-12-11T06:34:20;54.88;;;25.80;;
69625;SDS011;56847;51.984;5.088;2022-12-11T06:36:48;55.20;;;25.70;;
69625;SDS011;56847;51.984;5.088;2022-12-11T06:39:15;51.72;;;24.45;;
69625;SDS011;56847;51.984;5.088;2022-12-11T06:41:42;52.17;;;23.83;;
69625;SDS011;56847;51.984;5.088;2022-12-11T06:44:12;49.55;;;24.42;;
69625;SDS011;56847;51.984;5.088;2022-12-11T06:46:39;53.47;;;22.52;;
69625;SDS011;56847;51.984;5.088;2022-12-11T06:49:06;51.58;;;25.25;;
69625;SDS011;56847;51.984;5.088;2022-12-11T06:51:36;43.90;;;23.45;;
69625;SDS011;56847;51.984;5.088;2022-12-11T06:54:03;46.87;;;23.20;;
69625;SDS011;56847;51.984;5.088;2022-12-11T06:56:30;46.33;;;24.23;;
69625;SDS011;56847;51.984;5.088;2022-12-11T06:58:59;46.83;;;23.52;;
69625;SDS011;56847;51.984;5.088;2022-12-11T07:01:32;46.97;;;23.67;;
69625;SDS011;56847;51.984;5.088;2022-12-11T07:03:59;44.45;;;22.27;;
69625;SDS011;56847;51.984;5.088;2022-12-11T07:06:26;47.87;;;24.03;;
69625;SDS011;56847;51.984;5.088;2022-12-11T07:08:56;51.92;;;25.15;;
69625;SDS011;56847;51.984;5.088;2022-12-11T07:11:23;52.22;;;25.45;;
69625;SDS011;56847;51.984;5.088;2022-12-11T07:13:50;49.53;;;25.30;;
69625;SDS011;56847;51.984;5.088;2022-12-11T07:16:17;47.40;;;23.77;;
69625;SDS011;56847;51.984;5.088;2022-12-11T07:18:46;51.80;;;24.13;;
69625;SDS011;56847;51.984;5.088;2022-12-11T07:21:15;46.78;;;24.70;;
69625;SDS011;56847;51.984;5.088;2022-12-11T07:23:43;45.85;;;24.70;;
69625;SDS011;56847;51.984;5.088;2022-12-11T07:26:12;47.85;;;22.45;;
69625;SDS011;56847;51.984;5.088;2022-12-11T07:28:40;51.53;;;26.83;;
69625;SDS011;56847;51.984;5.088;2022-12-11T07:31:11;49.00;;;24.93;;
69625;SDS011;56847;51.984;5.088;2022-12-11T07:33:40;48.63;;;24.52;;
69625;SDS011;56847;51.984;5.088;2022-12-11T07:36:08;44.38;;;24.83;;
69625;SDS011;56847;51.984;5.088;2022-12-11T07:38:37;45.17;;;23.52;;
69625;SDS011;56847;51.984;5.088;2022-12-11T07:41:06;46.75;;;25.02;;
69625;SDS011;56847;51.984;5.088;2022-12-11T07:43:36;44.20;;;23.60;;
69625;SDS011;56847;51.984;5.088;2022-12-11T07:46:04;47.03;;;24.63;;
69625;SDS011;56847;51.984;5.088;2022-12-11T07:48:35;47.38;;;24.58;;
69625;SDS011;56847;51.984;5.088;2022-12-11T07:51:10;47.88;;;23.77;;
69625;SDS011;56847;51.984;5.088;2022-12-11T07:53:42;45.53;;;24.85;;
69625;SDS011;56847;51.984;5.088;2022-12-11T07:56:10;43.30;;;23.43;;
69625;SDS011;56847;51.984;5.088;2022-12-11T07:58:38;47.50;;;25.40;;
69625;SDS011;56847;51.984;5.088;2022-12-11T08:01:09;40.83;;;23.20;;
69625;SDS011;56847;51.984;5.088;2022-12-11T08:03:41;46.03;;;24.08;;
69625;SDS011;56847;51.984;5.088;2022-12-11T08:06:08;46.47;;;24.80;;
69625;SDS011;56847;51.984;5.088;2022-12-11T08:08:36;44.00;;;22.73;;
69625;SDS011;56847;51.984;5.088;2022-12-11T08:11:04;43.97;;;24.33;;
69625;SDS011;56847;51.984;5.088;2022-12-11T08:13:34;49.17;;;25.25;;
69625;SDS011;56847;51.984;5.088;2022-12-11T08:16:03;44.00;;;24.67;;
69625;SDS011;56847;51.984;5.088;2022-12-11T08:18:32;47.28;;;24.85;;
69625;SDS011;56847;51.984;5.088;2022-12-11T08:21:07;45.03;;;23.50;;
69625;SDS011;56847;51.984;5.088;2022-12-11T08:23:36;49.63;;;24.10;;
69625;SDS011;56847;51.984;5.088;2022-12-11T08:26:05;47.78;;;26.13;;
69625;SDS011;56847;51.984;5.088;2022-12-11T08:28:40;47.35;;;25.63;;
69625;SDS011;56847;51.984;5.088;2022-12-11T08:31:08;48.58;;;26.75;;
69625;SDS011;56847;51.984;5.088;2022-12-11T08:33:36;47.77;;;25.50;;
69625;SDS011;56847;51.984;5.088;2022-12-11T08:36:05;44.00;;;24.52;;
69625;SDS011;56847;51.984;5.088;2022-12-11T08:38:35;47.13;;;25.85;;
69625;SDS011;56847;51.984;5.088;2022-12-11T08:41:16;49.55;;;25.88;;
69625;SDS011;56847;51.984;5.088;2022-12-11T08:43:45;48.70;;;25.33;;
69625;SDS011;56847;51.984;5.088;2022-12-11T08:46:13;48.27;;;24.67;;
69625;SDS011;56847;51.984;5.088;2022-12-11T08:48:41;47.10;;;25.77;;
69625;SDS011;56847;51.984;5.088;2022-12-11T08:51:10;48.80;;;26.52;;
69625;SDS011;56847;51.984;5.088;2022-12-11T08:53:39;52.00;;;25.23;;
69625;SDS011;56847;51.984;5.088;2022-12-11T08:56:10;49.78;;;27.20;;
69625;SDS011;56847;51.984;5.088;2022-12-11T08:58:48;52.37;;;25.27;;
69625;SDS011;56847;51.984;5.088;2022-12-11T09:01:22;51.80;;;26.50;;
69625;SDS011;56847;51.984;5.088;2022-12-11T09:03:51;51.20;;;25.90;;
69625;SDS011;56847;51.984;5.088;2022-12-11T09:06:21;54.85;;;26.83;;
69625;SDS011;56847;51.984;5.088;2022-12-11T09:08:51;50.92;;;26.10;;
69625;SDS011;56847;51.984;5.088;2022-12-11T09:11:20;43.47;;;23.33;;
69625;SDS011;56847;51.984;5.088;2022-12-11T09:13:52;46.97;;;24.80;;
69625;SDS011;56847;51.984;5.088;2022-12-11T09:16:21;49.83;;;26.50;;
69625;SDS011;56847;51.984;5.088;2022-12-11T09:18:52;50.33;;;26.20;;
69625;SDS011;56847;51.984;5.088;2022-12-11T09:21:23;47.10;;;24.92;;
69625;SDS011;56847;51.984;5.088;2022-12-11T09:23:52;50.87;;;25.93;;
69625;SDS011;56847;51.984;5.088;2022-12-11T09:26:25;46.08;;;25.42;;
69625;SDS011;56847;51.984;5.088;2022-12-11T09:28:53;47.00;;;24.48;;
69625;SDS011;56847;51.984;5.088;2022-12-11T09:31:24;44.75;;;23.05;;
69625;SDS011;56847;51.984;5.088;2022-12-11T09:33:58;47.47;;;23.73;;
69625;SDS011;56847;51.984;5.088;2022-12-11T09:36:26;45.83;;;23.97;;
69625;SDS011;56847;51.984;5.088;2022-12-11T09:38:54;42.42;;;22.08;;
69625;SDS011;56847;51.984;5.088;2022-12-11T09:43:56;37.28;;;21.17;;
69625;SDS011;56847;51.984;5.088;2022-12-11T09:46:34;37.75;;;20.08;;
69625;SDS011;56847;51.984;5.088;2022-12-11T09:49:09;37.40;;;19.63;;
69625;SDS011;56847;51.984;5.088;2022-12-11T09:51:48;38.70;;;20.98;;
69625;SDS011;56847;51.984;5.088;2022-12-11T09:54:25;40.58;;;21.38;;
69625;SDS011;56847;51.984;5.088;2022-12-11T09:57:06;39.35;;;20.08;;
69625;SDS011;56847;51.984;5.088;2022-12-11T10:05:31;35.88;;;19.50;;
69625;SDS011;56847;51.984;5.088;2022-12-11T10:11:36;35.33;;;18.40;;
69625;SDS011;56847;51.984;5.088;2022-12-11T10:14:53;38.83;;;18.08;;
69625;SDS011;56847;51.984;5.088;2022-12-11T10:17:47;36.03;;;17.87;;
69625;SDS011;56847;51.984;5.088;2022-12-11T10:22:48;36.80;;;18.95;;
69625;SDS011;56847;51.984;5.088;2022-12-11T10:25:34;33.00;;;17.95;;
69625;SDS011;56847;51.984;5.088;2022-12-11T10:28:09;37.65;;;19.20;;
69625;SDS011;56847;51.984;5.088;2022-12-11T10:30:48;37.03;;;18.17;;
69625;SDS011;56847;51.984;5.088;2022-12-11T10:33:21;36.67;;;17.95;;
69625;SDS011;56847;51.984;5.088;2022-12-11T10:35:55;34.60;;;18.05;;
69625;SDS011;56847;51.984;5.088;2022-12-11T10:38:33;32.33;;;16.48;;
69625;SDS011;56847;51.984;5.088;2022-12-11T10:41:17;33.55;;;17.70;;
69625;SDS011;56847;51.984;5.088;2022-12-11T10:44:13;33.80;;;17.23;;
69625;SDS011;56847;51.984;5.088;2022-12-11T10:46:40;34.83;;;18.60;;
69625;SDS011;56847;51.984;5.088;2022-12-11T10:49:17;30.48;;;17.88;;
69625;SDS011;56847;51.984;5.088;2022-12-11T10:51:47;32.97;;;17.33;;
69625;SDS011;56847;51.984;5.088;2022-12-11T10:57:04;34.57;;;17.37;;
69625;SDS011;56847;51.984;5.088;2022-12-11T11:04:52;36.10;;;16.30;;
69625;SDS011;56847;51.984;5.088;2022-12-11T11:07:21;35.58;;;18.88;;
69625;SDS011;56847;51.984;5.088;2022-12-11T11:09:50;36.80;;;18.63;;
69625;SDS011;56847;51.984;5.088;2022-12-11T11:12:35;36.95;;;19.45;;
69625;SDS011;56847;51.984;5.088;2022-12-11T11:15:17;40.90;;;19.27;;
69625;SDS011;56847;51.984;5.088;2022-12-11T11:17:49;25.60;;;13.80;;
69625;SDS011;56847;51.984;5.088;2022-12-11T11:20:25;40.90;;;20.15;;
69625;SDS011;56847;51.984;5.088;2022-12-11T11:23:01;46.67;;;21.50;;
69625;SDS011;56847;51.984;5.088;2022-12-11T11:25:30;41.40;;;19.70;;
69625;SDS011;56847;51.984;5.088;2022-12-11T11:28:00;42.90;;;19.63;;
69625;SDS011;56847;51.984;5.088;2022-12-11T11:30:36;38.88;;;19.48;;
69625;SDS011;56847;51.984;5.088;2022-12-11T11:33:13;34.20;;;17.33;;
69625;SDS011;56847;51.984;5.088;2022-12-11T11:35:54;40.77;;;20.40;;
69625;SDS011;56847;51.984;5.088;2022-12-11T11:38:32;42.92;;;20.48;;
69625;SDS011;56847;51.984;5.088;2022-12-11T11:43:50;45.88;;;22.17;;
69625;SDS011;56847;51.984;5.088;2022-12-11T11:49:20;46.17;;;21.97;;
69625;SDS011;56847;51.984;5.088;2022-12-11T11:52:04;47.22;;;20.13;;
69625;SDS011;56847;51.984;5.088;2022-12-11T11:58:11;50.58;;;20.95;;
69625;SDS011;56847;51.984;5.088;2022-12-11T12:00:48;66.72;;;25.10;;
69625;SDS011;56847;51.984;5.088;2022-12-11T12:03:20;53.17;;;24.07;;
69625;SDS011;56847;51.984;5.088;2022-12-11T12:14:38;50.10;;;23.20;;
69625;SDS011;56847;51.984;5.088;2022-12-11T12:25:54;57.20;;;22.95;;
69625;SDS011;56847;51.984;5.088;2022-12-11T12:28:58;53.50;;;22.65;;
69625;SDS011;56847;51.984;5.088;2022-12-11T12:42:53;60.25;;;25.63;;
69625;SDS011;56847;51.984;5.088;2022-12-11T12:45:51;52.77;;;23.43;;
69625;SDS011;56847;51.984;5.088;2022-12-11T12:48:23;61.00;;;24.98;;
69625;SDS011;56847;51.984;5.088;2022-12-11T12:50:52;64.60;;;24.85;;
69625;SDS011;56847;51.984;5.088;2022-12-11T12:53:23;58.85;;;24.38;;
69625;SDS011;56847;51.984;5.088;2022-12-11T12:55:53;55.40;;;25.17;;
69625;SDS011;56847;51.984;5.088;2022-12-11T12:58:29;53.73;;;24.03;;
69625;SDS011;56847;51.984;5.088;2022-12-11T13:01:06;53.13;;;24.00;;
69625;SDS011;56847;51.984;5.088;2022-12-11T13:03:47;57.90;;;25.95;;
69625;SDS011;56847;51.984;5.088;2022-12-11T13:06:37;56.90;;;25.38;;
69625;SDS011;56847;51.984;5.088;2022-12-11T13:11:47;54.43;;;24.67;;
69625;SDS011;56847;51.984;5.088;2022-12-11T13:16:52;61.67;;;30.60;;
69625;SDS011;56847;51.984;5.088;2022-12-11T13:19:50;56.60;;;26.65;;
69625;SDS011;56847;51.984;5.088;2022-12-11T13:22:29;54.00;;;23.77;;
69625;SDS011;56847;51.984;5.088;2022-12-11T13:25:21;60.90;;;23.80;;
69625;SDS011;56847;51.984;5.088;2022-12-11T13:28:06;48.58;;;22.80;;
69625;SDS011;56847;51.984;5.088;2022-12-11T13:31:00;54.75;;;25.02;;
69625;SDS011;56847;51.984;5.088;2022-12-11T13:33:30;56.20;;;24.35;;
69625;SDS011;56847;51.984;5.088;2022-12-11T13:38:48;54.57;;;24.63;;
69625;SDS011;56847;51.984;5.088;2022-12-11T13:41:27;52.65;;;24.60;;
69625;SDS011;56847;51.984;5.088;2022-12-11T13:43:58;60.63;;;24.67;;
69625;SDS011;56847;51.984;5.088;2022-12-11T13:46:27;55.40;;;24.27;;
69625;SDS011;56847;51.984;5.088;2022-12-11T13:49:01;53.88;;;24.90;;
69625;SDS011;56847;51.984;5.088;2022-12-11T13:51:32;51.70;;;24.30;;
69625;SDS011;56847;51.984;5.088;2022-12-11T13:54:04;51.90;;;22.98;;
69625;SDS011;56847;51.984;5.088;2022-12-11T13:56:56;56.58;;;25.48;;
69625;SDS011;56847;51.984;5.088;2022-12-11T13:59:52;54.13;;;21.67;;
69625;SDS011;56847;51.984;5.088;2022-12-11T14:05:02;50.37;;;22.10;;
69625;SDS011;56847;51.984;5.088;2022-12-11T14:07:48;54.67;;;24.77;;
69625;SDS011;56847;51.984;5.088;2022-12-11T14:10:32;61.40;;;25.25;;
69625;SDS011;56847;51.984;5.088;2022-12-11T14:13:14;56.17;;;24.45;;
69625;SDS011;56847;51.984;5.088;2022-12-11T14:16:15;56.00;;;23.90;;
69625;SDS011;56847;51.984;5.088;2022-12-11T14:18:53;48.57;;;22.10;;
69625;SDS011;56847;51.984;5.088;2022-12-11T14:21:35;55.22;;;23.48;;
69625;SDS011;56847;51.984;5.088;2022-12-11T14:24:17;49.47;;;24.05;;
69625;SDS011;56847;51.984;5.088;2022-12-11T14:26:51;50.92;;;22.85;;
69625;SDS011;56847;51.984;5.088;2022-12-11T14:29:29;56.33;;;24.88;;
69625;SDS011;56847;51.984;5.088;2022-12-11T14:32:04;58.73;;;25.10;;
69625;SDS011;56847;51.984;5.088;2022-12-11T14:37:32;58.80;;;26.80;;
69625;SDS011;56847;51.984;5.088;2022-12-11T14:40:03;57.90;;;25.80;;
69625;SDS011;56847;51.984;5.088;2022-12-11T14:42:37;53.45;;;25.27;;
69625;SDS011;56847;51.984;5.088;2022-12-11T14:45:19;49.33;;;23.20;;
69625;SDS011;56847;51.984;5.088;2022-12-11T14:48:03;49.78;;;23.77;;
69625;SDS011;56847;51.984;5.088;2022-12-11T14:50:48;47.53;;;23.45;;
69625;SDS011;56847;51.984;5.088;2022-12-11T14:53:21;53.65;;;22.77;;
69625;SDS011;56847;51.984;5.088;2022-12-11T14:55:51;48.17;;;22.75;;
69625;SDS011;56847;51.984;5.088;2022-12-11T15:00:59;50.97;;;24.98;;
69625;SDS011;56847;51.984;5.088;2022-12-11T15:03:33;52.63;;;24.50;;
69625;SDS011;56847;51.984;5.088;2022-12-11T15:06:24;58.72;;;26.02;;
69625;SDS011;56847;51.984;5.088;2022-12-11T15:08:56;57.28;;;26.65;;
69625;SDS011;56847;51.984;5.088;2022-12-11T15:11:29;58.77;;;25.73;;
69625;SDS011;56847;51.984;5.088;2022-12-11T15:14:02;53.97;;;25.17;;
69625;SDS011;56847;51.984;5.088;2022-12-11T15:16:31;56.90;;;27.73;;
69625;SDS011;56847;51.984;5.088;2022-12-11T15:19:02;53.45;;;25.35;;
69625;SDS011;56847;51.984;5.088;2022-12-11T15:21:31;58.28;;;26.27;;
69625;SDS011;56847;51.984;5.088;2022-12-11T15:24:04;50.57;;;25.80;;
69625;SDS011;56847;51.984;5.088;2022-12-11T15:29:24;49.90;;;22.77;;
69625;SDS011;56847;51.984;5.088;2022-12-11T15:37:26;42.20;;;21.93;;
69625;SDS011;56847;51.984;5.088;2022-12-11T15:39:59;42.78;;;22.08;;
69625;SDS011;56847;51.984;5.088;2022-12-11T15:42:33;47.63;;;22.23;;
69625;SDS011;56847;51.984;5.088;2022-12-11T15:45:02;44.00;;;20.42;;
69625;SDS011;56847;51.984;5.088;2022-12-11T15:47:33;41.13;;;21.02;;
69625;SDS011;56847;51.984;5.088;2022-12-11T15:50:06;44.10;;;20.77;;
69625;SDS011;56847;51.984;5.088;2022-12-11T15:52:40;45.25;;;21.90;;
69625;SDS011;56847;51.984;5.088;2022-12-11T15:55:10;41.28;;;21.33;;
69625;SDS011;56847;51.984;5.088;2022-12-11T15:57:42;40.88;;;19.98;;
69625;SDS011;56847;51.984;5.088;2022-12-11T16:00:12;41.47;;;19.55;;
69625;SDS011;56847;51.984;5.088;2022-12-11T16:02:44;51.00;;;21.03;;
69625;SDS011;56847;51.984;5.088;2022-12-11T16:05:12;46.63;;;21.80;;
69625;SDS011;56847;51.984;5.088;2022-12-11T16:07:40;51.67;;;23.20;;
69625;SDS011;56847;51.984;5.088;2022-12-11T16:10:09;38.75;;;20.25;;
69625;SDS011;56847;51.984;5.088;2022-12-11T16:12:43;43.97;;;21.90;;
69625;SDS011;56847;51.984;5.088;2022-12-11T16:15:12;43.07;;;21.50;;
69625;SDS011;56847;51.984;5.088;2022-12-11T16:17:48;33.88;;;15.43;;
69625;SDS011;56847;51.984;5.088;2022-12-11T16:20:18;39.30;;;19.13;;
69625;SDS011;56847;51.984;5.088;2022-12-11T16:22:45;34.97;;;18.90;;
69625;SDS011;56847;51.984;5.088;2022-12-11T16:25:12;39.47;;;18.77;;
69625;SDS011;56847;51.984;5.088;2022-12-11T16:27:40;35.80;;;18.67;;
69625;SDS011;56847;51.984;5.088;2022-12-11T16:30:07;40.38;;;18.98;;
69625;SDS011;56847;51.984;5.088;2022-12-11T16:32:36;41.50;;;20.10;;
69625;SDS011;56847;51.984;5.088;2022-12-11T16:35:03;41.10;;;20.42;;
69625;SDS011;56847;51.984;5.088;2022-12-11T16:37:30;40.50;;;19.58;;
69625;SDS011;56847;51.984;5.088;2022-12-11T16:39:57;41.90;;;21.23;;
69625;SDS011;56847;51.984;5.088;2022-12-11T16:42:25;40.08;;;20.23;;
69625;SDS011;56847;51.984;5.088;2022-12-11T16:44:52;40.83;;;19.90;;
69625;SDS011;56847;51.984;5.088;2022-12-11T16:47:19;38.60;;;20.35;;
69625;SDS011;56847;51.984;5.088;2022-12-11T16:49:49;37.70;;;20.83;;
69625;SDS011;56847;51.984;5.088;2022-12-11T16:52:19;39.53;;;19.87;;
69625;SDS011;56847;51.984;5.088;2022-12-11T16:54:47;37.20;;;18.77;;
69625;SDS011;56847;51.984;5.088;2022-12-11T16:57:15;37.47;;;20.15;;
69625;SDS011;56847;51.984;5.088;2022-12-11T16:59:46;39.50;;;19.75;;
69625;SDS011;56847;51.984;5.088;2022-12-11T17:02:13;43.60;;;20.23;;
69625;SDS011;56847;51.984;5.088;2022-12-11T17:04:40;37.63;;;18.83;;
69625;SDS011;56847;51.984;5.088;2022-12-11T17:07:07;37.17;;;20.35;;
69625;SDS011;56847;51.984;5.088;2022-12-11T17:09:38;39.75;;;20.67;;
69625;SDS011;56847;51.984;5.088;2022-12-11T17:12:05;39.25;;;20.10;;
69625;SDS011;56847;51.984;5.088;2022-12-11T17:14:32;39.38;;;19.80;;
69625;SDS011;56847;51.984;5.088;2022-12-11T17:16:59;38.03;;;19.17;;
69625;SDS011;56847;51.984;5.088;2022-12-11T17:19:26;42.03;;;21.15;;
69625;SDS011;56847;51.984;5.088;2022-12-11T17:21:53;42.88;;;20.05;;
69625;SDS011;56847;51.984;5.088;2022-12-11T17:24:21;37.58;;;19.25;;
69625;SDS011;56847;51.984;5.088;2022-12-11T17:26:48;41.65;;;21.90;;
69625;SDS011;56847;51.984;5.088;2022-12-11T17:29:15;45.37;;;21.97;;
69625;SDS011;56847;51.984;5.088;2022-12-11T17:31:42;40.13;;;20.20;;
69625;SDS011;56847;51.984;5.088;2022-12-11T17:34:10;39.95;;;20.98;;
69625;SDS011;56847;51.984;5.088;2022-12-11T17:36:39;36.65;;;20.75;;
69625;SDS011;56847;51.984;5.088;2022-12-11T17:39:06;36.63;;;20.75;;
69625;SDS011;56847;51.984;5.088;2022-12-11T17:41:36;37.17;;;20.17;;
69625;SDS011;56847;51.984;5.088;2022-12-11T17:44:03;49.00;;;24.95;;
69625;SDS011;56847;51.984;5.088;2022-12-11T17:46:31;45.90;;;24.05;;
69625;SDS011;56847;51.984;5.088;2022-12-11T17:49:01;41.45;;;23.10;;
69625;SDS011;56847;51.984;5.088;2022-12-11T17:51:30;37.75;;;22.58;;
69625;SDS011;56847;51.984;5.088;2022-12-11T17:53:57;40.73;;;21.23;;
69625;SDS011;56847;51.984;5.088;2022-12-11T17:56:34;43.42;;;22.90;;
69625;SDS011;56847;51.984;5.088;2022-12-11T17:59:05;38.72;;;20.30;;
69625;SDS011;56847;51.984;5.088;2022-12-11T18:01:36;40.15;;;19.60;;
69625;SDS011;56847;51.984;5.088;2022-12-11T18:04:04;38.03;;;20.13;;
69625;SDS011;56847;51.984;5.088;2022-12-11T18:06:31;34.13;;;20.30;;
69625;SDS011;56847;51.984;5.088;2022-12-11T18:08:59;40.35;;;20.13;;
69625;SDS011;56847;51.984;5.088;2022-12-11T18:11:26;35.83;;;20.65;;
69625;SDS011;56847;51.984;5.088;2022-12-11T18:13:56;36.88;;;20.20;;
69625;SDS011;56847;51.984;5.088;2022-12-11T18:16:29;38.22;;;21.23;;
69625;SDS011;56847;51.984;5.088;2022-12-11T18:18:59;35.37;;;20.33;;
69625;SDS011;56847;51.984;5.088;2022-12-11T18:21:32;39.65;;;21.00;;
69625;SDS011;56847;51.984;5.088;2022-12-11T18:24:03;38.40;;;20.10;;
69625;SDS011;56847;51.984;5.088;2022-12-11T18:26:31;34.70;;;19.10;;
69625;SDS011;56847;51.984;5.088;2022-12-11T18:28:58;37.97;;;19.88;;
69625;SDS011;56847;51.984;5.088;2022-12-11T18:31:28;32.23;;;18.23;;
69625;SDS011;56847;51.984;5.088;2022-12-11T18:33:55;36.10;;;19.33;;
69625;SDS011;56847;51.984;5.088;2022-12-11T18:36:22;35.58;;;20.08;;
69625;SDS011;56847;51.984;5.088;2022-12-11T18:38:49;43.72;;;20.27;;
69625;SDS011;56847;51.984;5.088;2022-12-11T18:41:16;38.33;;;19.13;;
69625;SDS011;56847;51.984;5.088;2022-12-11T18:43:44;35.97;;;19.33;;
69625;SDS011;56847;51.984;5.088;2022-12-11T18:46:13;32.78;;;18.80;;
69625;SDS011;56847;51.984;5.088;2022-12-11T18:48:42;37.10;;;19.38;;
69625;SDS011;56847;51.984;5.088;2022-12-11T18:51:12;34.97;;;18.70;;
69625;SDS011;56847;51.984;5.088;2022-12-11T18:53:42;36.10;;;19.20;;
69625;SDS011;56847;51.984;5.088;2022-12-11T18:56:11;36.20;;;19.20;;
69625;SDS011;56847;51.984;5.088;2022-12-11T18:58:40;35.83;;;18.85;;
69625;SDS011;56847;51.984;5.088;2022-12-11T19:01:10;47.88;;;27.38;;
69625;SDS011;56847;51.984;5.088;2022-12-11T19:03:43;30.48;;;17.30;;
69625;SDS011;56847;51.984;5.088;2022-12-11T19:06:12;38.15;;;18.90;;
69625;SDS011;56847;51.984;5.088;2022-12-11T19:08:44;32.70;;;18.57;;
69625;SDS011;56847;51.984;5.088;2022-12-11T19:11:24;32.90;;;18.90;;
69625;SDS011;56847;51.984;5.088;2022-12-11T19:13:58;35.13;;;19.58;;
69625;SDS011;56847;51.984;5.088;2022-12-11T19:16:30;33.55;;;18.02;;
69625;SDS011;56847;51.984;5.088;2022-12-11T19:19:02;33.40;;;18.42;;
69625;SDS011;56847;51.984;5.088;2022-12-11T19:21:39;30.73;;;16.97;;
69625;SDS011;56847;51.984;5.088;2022-12-11T19:24:08;33.38;;;18.52;;
69625;SDS011;56847;51.984;5.088;2022-12-11T19:26:37;37.83;;;18.65;;
69625;SDS011;56847;51.984;5.088;2022-12-11T19:29:04;29.98;;;18.90;;
69625;SDS011;56847;51.984;5.088;2022-12-11T19:31:32;34.60;;;18.55;;
69625;SDS011;56847;51.984;5.088;2022-12-11T19:34:00;30.77;;;18.10;;
69625;SDS011;56847;51.984;5.088;2022-12-11T19:36:28;34.25;;;18.88;;
69625;SDS011;56847;51.984;5.088;2022-12-11T19:38:56;31.35;;;18.27;;
69625;SDS011;56847;51.984;5.088;2022-12-11T19:41:50;32.42;;;17.75;;
69625;SDS011;56847;51.984;5.088;2022-12-11T19:44:18;31.83;;;18.88;;
69625;SDS011;56847;51.984;5.088;2022-12-11T19:46:45;30.67;;;17.80;;
69625;SDS011;56847;51.984;5.088;2022-12-11T19:49:12;35.35;;;18.45;;
69625;SDS011;56847;51.984;5.088;2022-12-11T19:51:40;36.70;;;19.50;;
69625;SDS011;56847;51.984;5.088;2022-12-11T19:54:09;30.63;;;18.70;;
69625;SDS011;56847;51.984;5.088;2022-12-11T19:56:38;32.15;;;18.98;;
69625;SDS011;56847;51.984;5.088;2022-12-11T19:59:07;33.77;;;18.10;;
69625;SDS011;56847;51.984;5.088;2022-12-11T20:01:37;30.77;;;17.75;;
69625;SDS011;56847;51.984;5.088;2022-12-11T20:04:05;32.40;;;19.20;;
69625;SDS011;56847;51.984;5.088;2022-12-11T20:06:36;30.95;;;18.30;;
69625;SDS011;56847;51.984;5.088;2022-12-11T20:09:08;32.15;;;18.25;;
69625;SDS011;56847;51.984;5.088;2022-12-11T20:11:39;37.33;;;19.93;;
69625;SDS011;56847;51.984;5.088;2022-12-11T20:14:15;32.97;;;18.83;;
69625;SDS011;56847;51.984;5.088;2022-12-11T20:16:44;32.38;;;18.85;;
69625;SDS011;56847;51.984;5.088;2022-12-11T20:19:31;30.10;;;17.92;;
69625;SDS011;56847;51.984;5.088;2022-12-11T20:21:59;33.63;;;18.30;;
69625;SDS011;56847;51.984;5.088;2022-12-11T20:24:26;33.57;;;19.67;;
69625;SDS011;56847;51.984;5.088;2022-12-11T20:26:53;33.55;;;18.35;;
69625;SDS011;56847;51.984;5.088;2022-12-11T20:29:25;32.67;;;19.10;;
69625;SDS011;56847;51.984;5.088;2022-12-11T20:31:53;31.17;;;18.42;;
69625;SDS011;56847;51.984;5.088;2022-12-11T20:34:24;32.05;;;19.15;;
69625;SDS011;56847;51.984;5.088;2022-12-11T20:36:51;31.57;;;18.23;;
69625;SDS011;56847;51.984;5.088;2022-12-11T20:39:19;32.30;;;18.88;;
69625;SDS011;56847;51.984;5.088;2022-12-11T20:41:46;31.13;;;18.38;;
69625;SDS011;56847;51.984;5.088;2022-12-11T20:44:14;35.25;;;19.40;;
69625;SDS011;56847;51.984;5.088;2022-12-11T20:46:41;37.65;;;20.70;;
69625;SDS011;56847;51.984;5.088;2022-12-11T20:49:08;31.37;;;18.83;;
69625;SDS011;56847;51.984;5.088;2022-12-11T20:51:38;35.97;;;18.88;;
69625;SDS011;56847;51.984;5.088;2022-12-11T20:54:06;28.90;;;18.15;;
69625;SDS011;56847;51.984;5.088;2022-12-11T20:56:33;26.95;;;16.67;;
69625;SDS011;56847;51.984;5.088;2022-12-11T20:59:01;33.42;;;19.60;;
69625;SDS011;56847;51.984;5.088;2022-12-11T21:01:30;33.63;;;17.97;;
69625;SDS011;56847;51.984;5.088;2022-12-11T21:03:58;34.58;;;18.30;;
69625;SDS011;56847;51.984;5.088;2022-12-11T21:06:27;33.85;;;19.48;;
69625;SDS011;56847;51.984;5.088;2022-12-11T21:08:59;34.95;;;19.30;;
69625;SDS011;56847;51.984;5.088;2022-12-11T21:11:31;36.83;;;19.52;;
69625;SDS011;56847;51.984;5.088;2022-12-11T21:13:58;28.57;;;17.17;;
69625;SDS011;56847;51.984;5.088;2022-12-11T21:16:25;36.78;;;19.20;;
69625;SDS011;56847;51.984;5.088;2022-12-11T21:18:56;39.60;;;19.20;;
69625;SDS011;56847;51.984;5.088;2022-12-11T21:21:24;33.13;;;18.90;;
69625;SDS011;56847;51.984;5.088;2022-12-11T21:23:51;33.53;;;17.98;;
69625;SDS011;56847;51.984;5.088;2022-12-11T21:26:19;33.27;;;19.00;;
69625;SDS011;56847;51.984;5.088;2022-12-11T21:28:46;30.88;;;18.52;;
69625;SDS011;56847;51.984;5.088;2022-12-11T21:31:17;32.72;;;19.42;;
69625;SDS011;56847;51.984;5.088;2022-12-11T21:33:45;31.75;;;17.42;;
69625;SDS011;56847;51.984;5.088;2022-12-11T21:36:13;34.55;;;19.83;;
69625;SDS011;56847;51.984;5.088;2022-12-11T21:38:41;33.83;;;17.87;;